Time;durP1;ratioP1;P1;durP2;ratioP2;P2;SDS_P1;SDS_P2;PMS_P1;PMS_P2;Temp;Humidity;BMP_temperature;BMP_pressure;BME280_temperature;BME280_humidity;BME280_pressure;Samples;Min_cycle;Max_cycle;Signal;HPM_P1;HPM_P2
2023/01/27 00:01:36;;;;;;;21.23;3.20;;;;;;;15.55;71.54;102333.69;5056328;28;20059;-50
2023/01/27 00:04:03;;;;;;;12.23;2.22;;;;;;;15.83;70.50;102341.00;5059290;28;20035;-53
2023/01/27 00:06:33;;;;;;;15.13;3.03;;;;;;;16.11;69.24;102342.91;5059595;28;20044;-54
2023/01/27 00:08:59;;;;;;;10.40;2.88;;;;;;;16.03;70.83;102334.97;5055999;28;20067;-53
2023/01/27 00:14:08;;;;;;;14.32;2.97;;;;;;;16.08;68.22;102343.28;5059172;28;20033;-49
2023/01/27 00:16:35;;;;;;;11.80;2.80;;;;;;;15.72;69.48;102334.25;5059454;28;20056;-52
2023/01/27 00:19:00;;;;;;;22.60;3.42;;;;;;;15.86;68.90;102340.59;5057740;28;20037;-55
2023/01/27 00:26:56;;;;;;;14.52;3.15;;;;;;;15.51;72.15;102345.88;5056535;28;20029;-49
2023/01/27 00:29:22;;;;;;;13.97;3.90;;;;;;;15.86;69.53;102346.00;5057154;28;20120;-53
2023/01/27 00:34:32;;;;;;;8.70;3.60;;;;;;;15.74;68.42;102344.84;5056686;28;20626;-52
2023/01/27 00:36:57;;;;;;;16.23;3.70;;;;;;;15.58;70.80;102338.69;5057028;28;20033;-53
2023/01/27 00:39:23;;;;;;;12.27;3.53;;;;;;;15.60;71.38;102341.19;5057850;28;20036;-50
2023/01/27 00:41:49;;;;;;;12.27;3.30;;;;;;;15.52;70.24;102347.56;5054681;28;20065;-56
2023/01/27 00:44:14;;;;;;;13.23;3.95;;;;;;;15.70;73.23;102341.69;5059714;28;20052;-58
2023/01/27 00:46:41;;;;;;;13.15;3.67;;;;;;;16.19;68.29;102345.47;5056626;28;20025;-52
2023/01/27 00:49:08;;;;;;;11.90;4.00;;;;;;;15.85;68.13;102352.41;5059098;28;20025;-51
2023/01/27 00:51:35;;;;;;;19.13;5.35;;;;;;;15.95;67.98;102354.00;5055156;28;20041;-53
2023/01/27 00:54:02;;;;;;;15.40;4.18;;;;;;;15.58;70.20;102345.94;5060619;28;20083;-48
2023/01/27 00:56:28;;;;;;;12.90;4.40;;;;;;;15.26;72.10;102351.63;5056326;28;20037;-51
2023/01/27 00:58:55;;;;;;;10.90;3.65;;;;;;;15.82;69.33;102352.00;5060025;28;20041;-54
2023/01/27 01:01:21;;;;;;;14.95;4.28;;;;;;;15.71;68.19;102343.38;5060173;28;20036;-54
2023/01/27 01:03:46;;;;;;;13.67;4.97;;;;;;;15.75;68.14;102351.91;5057338;28;20055;-54
2023/01/27 01:06:15;;;;;;;15.77;3.63;;;;;;;15.52;68.10;102346.69;5058960;28;20029;-56
2023/01/27 01:08:42;;;;;;;17.92;4.25;;;;;;;15.40;70.36;102349.06;5062282;28;20024;-54
2023/01/27 01:11:14;;;;;;;7.97;2.90;;;;;;;15.60;71.09;102352.00;5058810;28;20037;-55
2023/01/27 01:13:41;;;;;;;13.30;3.90;;;;;;;15.51;71.13;102350.44;5054114;28;20069;-53
2023/01/27 01:16:10;;;;;;;;;;;;;;;15.21;71.78;102356.72;5055208;28;20069;-54
2023/01/27 01:18:37;;;;;;;12.43;3.60;;;;;;;15.69;68.22;102360.78;5053268;28;19916;-53
2023/01/27 01:21:05;;;;;;;11.57;3.13;;;;;;;14.74;76.00;102356.97;5057272;28;20052;-52
2023/01/27 01:23:31;;;;;;;12.15;4.15;;;;;;;15.49;70.23;102369.50;5059666;28;20041;-51
2023/01/27 01:25:57;;;;;;;12.50;3.17;;;;;;;15.51;69.40;102370.16;5055120;28;20030;-53
2023/01/27 01:28:23;;;;;;;13.40;4.20;;;;;;;15.76;66.99;102365.19;5059608;28;20032;-54
2023/01/27 01:30:49;;;;;;;12.23;3.42;;;;;;;15.32;67.62;102367.03;5063996;28;20033;-50
2023/01/27 01:33:16;;;;;;;;;;;;;;;15.35;67.92;102368.53;5064894;28;20088;-54
2023/01/27 01:35:42;;;;;;;13.00;3.80;;;;;;;15.78;66.90;102373.94;5063377;28;20403;-55
2023/01/27 01:38:08;;;;;;;15.07;4.43;;;;;;;15.80;66.44;102370.19;5062896;28;20040;-52
2023/01/27 01:40:39;;;;;;;12.73;4.20;;;;;;;16.07;66.41;102360.53;5061324;28;20091;-48
2023/01/27 01:43:11;;;;;;;12.38;3.72;;;;;;;16.08;65.82;102367.59;5063539;28;20052;-49
2023/01/27 01:45:38;;;;;;;11.13;3.53;;;;;;;15.62;66.38;102371.50;5058844;28;20052;-49
2023/01/27 01:48:07;;;;;;;9.32;3.40;;;;;;;15.39;67.73;102379.75;5060522;28;20029;-51
2023/01/27 01:50:35;;;;;;;11.82;3.58;;;;;;;15.63;66.71;102373.19;5059524;28;20037;-52
2023/01/27 01:53:02;;;;;;;13.70;4.40;;;;;;;15.68;66.34;102375.28;5063848;28;20076;-51
2023/01/27 01:55:30;;;;;;;16.42;3.95;;;;;;;15.42;67.26;102387.44;5062554;28;20049;-51
2023/01/27 01:57:55;;;;;;;13.95;4.15;;;;;;;15.60;67.27;102379.78;5058982;28;20092;-55
2023/01/27 02:00:21;;;;;;;14.13;4.00;;;;;;;15.44;68.49;102374.59;5058553;28;20029;-56
2023/01/27 02:02:48;;;;;;;11.73;4.03;;;;;;;15.34;69.83;102381.16;5068325;28;20041;-53
2023/01/27 02:05:26;;;;;;;18.17;4.60;;;;;;;15.57;69.23;102373.91;5062572;28;20057;-51
2023/01/27 02:08:11;;;;;;;12.90;5.00;;;;;;;16.13;66.05;102377.81;5057784;28;20037;-53
2023/01/27 02:10:37;;;;;;;12.80;3.88;;;;;;;15.82;66.43;102371.69;5067214;28;20029;-51
2023/01/27 02:13:03;;;;;;;13.70;4.03;;;;;;;15.77;66.97;102371.44;5057140;28;20096;-53
2023/01/27 02:15:31;;;;;;;12.80;3.90;;;;;;;15.91;65.80;102373.28;5055489;28;20059;-52
2023/01/27 02:17:59;;;;;;;12.35;4.55;;;;;;;15.90;65.38;102376.16;5056835;28;20025;-52
2023/01/27 02:20:33;;;;;;;14.50;4.75;;;;;;;15.97;65.15;102378.91;5061988;28;20033;-50
2023/01/27 02:23:14;;;;;;;15.90;4.70;;;;;;;15.72;65.91;102374.72;5061330;28;20100;-54
2023/01/27 02:26:06;;;;;;;7.93;3.47;;;;;;;15.39;68.86;102385.13;5069106;28;20041;-52
2023/01/27 02:28:32;;;;;;;10.75;4.15;;;;;;;15.20;70.27;102395.47;5062085;28;20033;-51
2023/01/27 02:30:58;;;;;;;18.60;5.57;;;;;;;15.09;67.87;102387.91;5063696;28;20584;-52
2023/01/27 02:33:24;;;;;;;17.33;5.27;;;;;;;15.27;66.77;102391.03;5057757;28;20061;-51
2023/01/27 02:36:02;;;;;;;12.70;4.82;;;;;;;15.16;70.36;102384.25;5065125;28;20048;-53
2023/01/27 02:38:33;;;;;;;14.75;5.32;;;;;;;15.16;68.13;102397.75;5057242;28;20087;-52
2023/01/27 02:41:10;;;;;;;17.95;6.65;;;;;;;14.89;69.74;102393.84;5057469;28;20040;-54
2023/01/27 02:43:37;;;;;;;23.02;6.75;;;;;;;14.47;71.54;102383.47;5055097;28;20059;-50
2023/01/27 02:46:02;;;;;;;15.03;6.80;;;;;;;14.89;69.80;102394.69;5059243;28;20057;-53
2023/01/27 02:48:28;;;;;;;18.40;6.82;;;;;;;15.07;68.71;102401.53;5057901;28;20040;-54
2023/01/27 02:50:53;;;;;;;20.23;8.80;;;;;;;14.69;71.62;102398.94;5061405;28;20038;-54
2023/01/27 02:53:18;;;;;;;20.77;7.77;;;;;;;14.36;70.28;102405.47;5060860;28;20033;-54
2023/01/27 02:55:44;;;;;;;14.43;5.40;;;;;;;14.89;74.89;102388.47;5059869;28;20037;-55
2023/01/27 02:58:14;;;;;;;17.13;7.80;;;;;;;15.11;72.13;102404.72;5060758;28;20033;-49
2023/01/27 03:00:45;;;;;;;18.23;8.57;;;;;;;15.28;71.44;102403.47;5060375;28;20170;-55
2023/01/27 03:03:11;;;;;;;27.83;9.43;;;;;;;15.49;68.53;102413.47;5061725;28;20037;-54
2023/01/27 03:05:37;;;;;;;22.23;7.32;;;;;;;15.04;69.99;102408.16;5056948;28;20160;-52
2023/01/27 03:08:03;;;;;;;20.75;8.68;;;;;;;15.14;68.72;102409.72;5059721;28;20112;-54
2023/01/27 03:10:29;;;;;;;23.15;9.23;;;;;;;14.71;69.46;102410.38;5060527;28;20060;-53
2023/01/27 03:12:56;;;;;;;29.15;9.10;;;;;;;14.86;72.67;102419.28;5061375;28;20059;-51
2023/01/27 03:18:08;;;;;;;28.05;9.48;;;;;;;15.06;69.51;102416.03;5063353;28;20052;-53
2023/01/27 03:20:34;;;;;;;19.65;8.45;;;;;;;15.15;68.80;102420.31;5061080;28;20030;-51
2023/01/27 03:23:01;;;;;;;20.65;9.38;;;;;;;14.85;69.72;102419.50;5060307;28;20125;-53
2023/01/27 03:25:27;;;;;;;25.05;10.20;;;;;;;14.72;71.03;102420.94;5061501;28;20037;-51
2023/01/27 03:27:55;;;;;;;18.40;9.20;;;;;;;14.83;72.06;102426.91;5061137;28;20044;-51
2023/01/27 03:30:40;;;;;;;28.88;11.07;;;;;;;14.90;70.63;102430.53;5058666;28;20051;-51
2023/01/27 03:33:19;;;;;;;25.02;9.60;;;;;;;14.57;73.64;102422.78;5062078;28;20030;-48
2023/01/27 03:46:58;;;;;;;27.48;10.48;;;;;;;15.18;69.80;102435.25;5057351;28;20033;-52
2023/01/27 03:49:24;;;;;;;29.33;11.90;;;;;;;15.61;68.27;102439.94;5058913;28;20040;-53
2023/01/27 03:51:49;;;;;;;27.63;11.20;;;;;;;15.39;67.78;102430.97;5055856;28;20211;-53
2023/01/27 03:54:15;;;;;;;24.27;10.77;;;;;;;15.10;69.12;102433.50;5059932;28;20033;-52
2023/01/27 03:56:40;;;;;;;27.93;12.00;;;;;;;15.14;69.08;102431.28;5057106;28;20037;-50
2023/01/27 03:59:06;;;;;;;28.80;12.40;;;;;;;14.77;70.24;102431.19;5061535;28;20059;-51
2023/01/27 04:01:31;;;;;;;29.70;12.77;;;;;;;14.64;71.04;102429.09;5058673;28;20044;-55
2023/01/27 04:09:26;;;;;;;23.63;11.30;;;;;;;14.61;70.65;102427.59;5059306;28;20037;-48
2023/01/27 04:11:54;;;;;;;28.45;12.38;;;;;;;14.62;71.10;102431.97;5057790;28;20041;-52
2023/01/27 04:14:31;;;;;;;27.25;12.38;;;;;;;14.71;70.41;102434.63;5055064;28;20052;-50
2023/01/27 04:17:00;;;;;;;23.85;11.18;;;;;;;14.84;70.17;102445.56;5060995;28;20029;-48
2023/01/27 04:19:26;;;;;;;26.48;11.55;;;;;;;15.04;69.44;102440.50;5059881;28;20036;-53
2023/01/27 04:21:52;;;;;;;31.27;13.27;;;;;;;15.05;68.76;102441.31;5054782;28;20063;-52
2023/01/27 04:24:21;;;;;;;27.23;12.70;;;;;;;14.80;68.62;102448.84;5058342;28;20269;-54
2023/01/27 04:26:49;;;;;;;27.33;11.40;;;;;;;14.93;69.05;102451.72;5057014;28;20111;-52
2023/01/27 04:29:14;;;;;;;23.10;11.07;;;;;;;14.80;69.04;102444.28;5060588;28;20056;-52
2023/01/27 04:31:41;;;;;;;25.25;10.93;;;;;;;14.72;68.72;102455.97;5055256;28;20060;-53
2023/01/27 04:34:07;;;;;;;22.35;10.52;;;;;;;14.58;69.41;102460.28;5058537;28;20068;-47
2023/01/27 04:36:34;;;;;;;22.45;10.07;;;;;;;14.70;68.98;102462.53;5057684;28;20032;-50
2023/01/27 04:38:59;;;;;;;25.73;11.45;;;;;;;14.79;68.18;102464.16;5057016;28;20042;-51
2023/01/27 04:41:25;;;;;;;18.77;8.93;;;;;;;15.29;66.72;102458.19;5061102;28;20091;-48
2023/01/27 04:43:50;;;;;;;21.70;9.80;;;;;;;15.61;65.17;102465.03;5062507;28;20029;-53
2023/01/27 04:46:16;;;;;;;24.27;9.93;;;;;;;15.59;65.46;102459.00;5057301;28;20036;-52
2023/01/27 04:48:41;;;;;;;19.23;9.23;;;;;;;15.70;64.82;102465.75;5059687;28;20029;-54
2023/01/27 04:51:07;;;;;;;18.37;8.67;;;;;;;15.38;65.32;102456.25;5059979;28;20056;-49
2023/01/27 04:53:32;;;;;;;14.93;7.60;;;;;;;15.17;66.16;102461.38;5059832;28;20110;-52
2023/01/27 04:56:05;;;;;;;14.97;7.20;;;;;;;15.18;65.02;102456.81;5055022;28;20072;-53
2023/01/27 04:58:31;;;;;;;18.45;8.60;;;;;;;15.00;66.20;102455.34;5058546;28;20044;-54
2023/01/27 05:00:57;;;;;;;13.77;7.28;;;;;;;15.47;64.61;102465.91;5059658;28;20033;-51
2023/01/27 05:03:22;;;;;;;18.20;8.20;;;;;;;15.00;65.50;102455.34;5061379;28;20060;-51
2023/01/27 05:05:48;;;;;;;13.77;6.53;;;;;;;14.52;67.50;102455.63;5066939;28;20097;-52
2023/01/27 05:08:14;;;;;;;13.00;6.10;;;;;;;14.68;67.62;102457.31;5067215;28;20037;-53
2023/01/27 05:10:43;;;;;;;14.20;6.28;;;;;;;14.72;66.50;102457.84;5060936;28;20278;-54
2023/01/27 05:13:09;;;;;;;13.07;6.05;;;;;;;15.36;64.69;102469.94;5064254;28;20061;-53
2023/01/27 05:15:34;;;;;;;10.43;5.77;;;;;;;15.25;65.56;102471.25;5065759;28;20032;-50
2023/01/27 05:18:00;;;;;;;15.67;6.90;;;;;;;15.56;63.97;102472.88;5059610;28;20043;-49
2023/01/27 05:20:25;;;;;;;12.17;6.23;;;;;;;15.71;63.42;102472.00;5065326;28;20270;-52
2023/01/27 05:23:33;;;;;;;13.38;7.28;;;;;;;14.80;64.95;102471.19;5065067;28;20024;-51
2023/01/27 05:25:36;;;;;;;13.02;7.00;;;;;;;14.84;65.62;102469.00;5057367;28;20034;-51
2023/01/27 05:28:02;;;;;;;15.03;6.30;;;;;;;14.71;65.76;102467.75;5064523;28;20060;-52
2023/01/27 05:30:27;;;;;;;14.18;6.70;;;;;;;14.63;65.97;102470.50;5064693;28;20123;-51
2023/01/27 05:32:53;;;;;;;11.80;5.43;;;;;;;14.84;65.93;102466.28;5066084;28;20124;-50
2023/01/27 05:35:18;;;;;;;12.80;6.50;;;;;;;15.30;64.48;102474.19;5062836;28;20053;-53
2023/01/27 05:37:44;;;;;;;9.43;5.07;;;;;;;15.30;64.66;102478.75;5066419;28;20033;-55
2023/01/27 05:40:10;;;;;;;15.60;6.90;;;;;;;15.62;63.81;102487.47;5063745;28;20036;-50
2023/01/27 05:42:35;;;;;;;11.90;5.70;;;;;;;15.56;63.26;102472.88;5062142;28;20067;-50
2023/01/27 05:45:01;;;;;;;9.20;5.00;;;;;;;14.54;65.59;102475.13;5062444;28;20097;-49
2023/01/27 05:47:27;;;;;;;10.68;5.03;;;;;;;15.05;65.66;102474.50;5066334;28;20033;-53
2023/01/27 05:49:52;;;;;;;9.43;4.30;;;;;;;15.28;64.92;102483.47;5060631;28;20108;-54
2023/01/27 05:52:18;;;;;;;10.00;4.63;;;;;;;15.43;63.37;102492.41;5063297;28;20097;-50
2023/01/27 05:54:43;;;;;;;9.40;4.73;;;;;;;15.62;62.59;102488.28;5067207;28;20041;-54
2023/01/27 05:57:09;;;;;;;12.23;5.23;;;;;;;15.46;62.75;102486.63;5066158;28;20280;-51
2023/01/27 05:59:34;;;;;;;9.37;4.83;;;;;;;14.94;65.85;102483.00;5064449;28;20064;-48
2023/01/27 06:02:00;;;;;;;12.43;5.77;;;;;;;14.87;65.34;102492.84;5066421;28;20037;-52
2023/01/27 06:04:25;;;;;;;7.57;4.57;;;;;;;14.94;64.81;102491.09;5060549;28;20278;-53
2023/01/27 06:06:50;;;;;;;9.33;4.57;;;;;;;14.91;64.72;102499.53;5067229;28;20036;-53
2023/01/27 06:09:16;;;;;;;11.10;5.40;;;;;;;14.90;64.73;102492.50;5063432;28;20064;-53
2023/01/27 06:11:42;;;;;;;9.80;4.77;;;;;;;15.27;64.89;102500.69;5064410;28;20143;-53
2023/01/27 06:14:07;;;;;;;9.57;4.43;;;;;;;15.68;63.33;102502.88;5063324;28;20049;-54
2023/01/27 06:16:33;;;;;;;8.93;5.00;;;;;;;15.07;63.21;102500.41;5066162;28;20068;-50
2023/01/27 06:18:58;;;;;;;92.85;37.90;;;;;;;15.39;62.89;102509.13;5062976;28;20033;-51
2023/01/27 06:21:24;;;;;;;14.90;7.70;;;;;;;15.17;63.82;102499.13;5066690;28;20092;-49
2023/01/27 06:23:49;;;;;;;9.07;4.73;;;;;;;15.25;63.90;102505.41;5061430;28;20346;-48
2023/01/27 06:26:17;;;;;;;9.03;4.67;;;;;;;15.03;64.43;102508.00;5062778;28;20029;-53
2023/01/27 06:28:43;;;;;;;9.63;4.40;;;;;;;15.14;64.17;102512.13;5059989;28;20041;-50
2023/01/27 06:31:15;;;;;;;7.05;4.30;;;;;;;15.34;62.81;102517.81;5060356;28;20041;-52
2023/01/27 06:33:41;;;;;;;9.27;4.47;;;;;;;15.29;64.12;102515.66;5063072;28;20048;-49
2023/01/27 06:36:10;;;;;;;11.77;4.40;;;;;;;15.33;63.82;102524.19;5059952;28;20104;-50
2023/01/27 06:38:36;;;;;;;12.48;5.30;;;;;;;15.08;63.69;102515.56;5061772;28;20037;-52
2023/01/27 06:41:02;;;;;;;8.25;4.60;;;;;;;15.22;64.52;102521.97;5063531;28;20045;-51
2023/01/27 06:43:27;;;;;;;10.90;4.53;;;;;;;15.37;63.58;102532.75;5062588;28;20072;-49
2023/01/27 06:45:53;;;;;;;9.37;4.13;;;;;;;15.68;61.87;102531.69;5065354;28;20043;-47
2023/01/27 06:48:19;;;;;;;12.02;4.80;;;;;;;15.48;62.50;102538.50;5056690;28;20040;-50
2023/01/27 06:50:45;;;;;;;10.05;4.32;;;;;;;15.47;62.62;102536.00;5058924;28;20045;-51
2023/01/27 06:53:10;;;;;;;9.07;4.50;;;;;;;15.79;62.13;102533.91;5059562;28;20059;-49
2023/01/27 06:55:43;;;;;;;8.60;5.20;;;;;;;15.78;61.60;102534.94;5059810;28;20034;-48
2023/01/27 06:58:10;;;;;;;7.63;4.18;;;;;;;15.58;62.04;102522.03;5058719;28;20034;-48
2023/01/27 07:00:38;;;;;;;6.57;4.18;;;;;;;15.43;62.17;102534.69;5061987;28;20044;-52
2023/01/27 07:03:04;;;;;;;7.68;4.43;;;;;;;15.37;61.97;102528.22;5064234;28;20029;-53
2023/01/27 07:05:31;;;;;;;6.88;4.30;;;;;;;15.38;62.01;102529.03;5062891;28;20041;-53
2023/01/27 07:07:58;;;;;;;7.05;4.13;;;;;;;15.18;62.37;102525.03;5063773;28;20037;-52
2023/01/27 07:10:24;;;;;;;13.98;4.90;;;;;;;15.16;62.51;102524.38;5063427;28;20044;-54
2023/01/27 07:12:49;;;;;;;10.77;4.40;;;;;;;15.00;62.84;102524.56;5058885;28;20037;-48
2023/01/27 07:15:15;;;;;;;8.63;4.68;;;;;;;15.09;62.62;102520.75;5062562;28;20037;-53
2023/01/27 07:17:41;;;;;;;9.00;4.10;;;;;;;15.21;62.39;102531.91;5062694;28;20052;-51
2023/01/27 07:20:08;;;;;;;7.33;4.00;;;;;;;15.01;63.04;102526.22;5057388;28;20048;-51
2023/01/27 07:22:34;;;;;;;7.38;4.13;;;;;;;14.98;63.88;102523.91;5060275;28;20037;-55
2023/01/27 07:25:00;;;;;;;8.55;4.53;;;;;;;15.73;61.35;102529.28;5063739;28;20108;-52
2023/01/27 07:27:27;;;;;;;9.38;4.25;;;;;;;15.23;62.06;102535.28;5058141;28;20036;-54
2023/01/27 07:29:52;;;;;;;11.88;5.07;;;;;;;15.12;62.62;102523.09;5059305;28;20041;-51
2023/01/27 07:32:18;;;;;;;9.57;4.75;;;;;;;15.02;62.63;102533.28;5059743;28;20025;-50
2023/01/27 07:34:44;;;;;;;9.73;4.30;;;;;;;15.02;63.02;102531.44;5065789;28;20061;-55
2023/01/27 07:37:09;;;;;;;8.90;4.43;;;;;;;15.10;62.55;102532.38;5062057;28;20270;-51
2023/01/27 07:39:36;;;;;;;11.80;4.50;;;;;;;15.30;62.55;102544.28;5060691;28;20025;-49
2023/01/27 07:42:03;;;;;;;6.15;3.60;;;;;;;15.23;62.21;102532.56;5066695;28;20040;-48
2023/01/27 07:44:29;;;;;;;11.85;3.92;;;;;;;15.02;62.48;102544.91;5062332;28;20037;-51
2023/01/27 07:46:57;;;;;;;9.73;4.38;;;;;;;15.67;61.59;102536.25;5065086;28;20029;-52
2023/01/27 07:49:23;;;;;;;6.78;3.90;;;;;;;14.88;61.56;102545.72;5058536;28;20064;-54
2023/01/27 07:51:49;;;;;;;10.57;4.68;;;;;;;14.53;62.65;102539.91;5058184;28;20052;-53
2023/01/27 07:54:14;;;;;;;9.00;4.47;;;;;;;14.47;62.59;102536.91;5064779;28;20034;-55
2023/01/27 07:56:40;;;;;;;6.43;4.00;;;;;;;14.25;63.36;102545.81;5061478;28;20284;-51
2023/01/27 07:59:05;;;;;;;9.50;4.30;;;;;;;14.30;63.05;102554.19;5061085;28;20029;-51
2023/01/27 08:01:31;;;;;;;9.02;4.90;;;;;;;14.16;63.44;102540.50;5060887;28;20037;-55
2023/01/27 08:03:57;;;;;;;11.05;3.97;;;;;;;14.09;63.58;102550.31;5059226;28;20036;-49
2023/01/27 08:06:23;;;;;;;11.98;4.50;;;;;;;14.16;63.43;102558.47;5062785;28;20041;-54
2023/01/27 08:08:49;;;;;;;7.30;4.20;;;;;;;14.13;63.52;102551.63;5063302;28;20040;-50
2023/01/27 08:11:14;;;;;;;8.60;4.23;;;;;;;13.93;63.85;102558.44;5063350;28;20037;-51
2023/01/27 08:13:41;;;;;;;6.07;3.63;;;;;;;13.96;63.90;102560.78;5059938;28;20032;-51
2023/01/27 08:16:11;;;;;;;7.18;4.00;;;;;;;14.02;63.64;102571.69;5061791;28;20064;-55
2023/01/27 08:18:36;;;;;;;9.07;4.20;;;;;;;14.35;63.00;102576.03;5063066;28;20037;-53
2023/01/27 08:21:05;;;;;;;5.93;3.37;;;;;;;14.26;62.93;102574.41;5058425;28;20040;-50
2023/01/27 08:23:31;;;;;;;7.38;3.90;;;;;;;14.28;63.24;102580.44;5060903;28;20116;-51
2023/01/27 08:26:01;;;;;;;6.97;3.42;;;;;;;14.46;63.04;102575.63;5060645;28;20029;-53
2023/01/27 08:28:29;;;;;;;5.88;3.53;;;;;;;14.62;62.47;102585.44;5057998;28;20025;-54
2023/01/27 08:31:03;;;;;;;6.65;3.45;;;;;;;14.81;62.02;102591.38;5060880;28;20037;-49
2023/01/27 08:33:29;;;;;;;7.10;3.70;;;;;;;14.74;62.01;102591.25;5057324;28;20116;-54
2023/01/27 08:35:54;;;;;;;6.53;3.73;;;;;;;14.76;61.72;102594.63;5058752;28;20053;-54
2023/01/27 08:38:20;;;;;;;7.57;3.97;;;;;;;14.81;61.74;102591.38;5056866;28;20038;-52
2023/01/27 08:40:46;;;;;;;7.27;3.47;;;;;;;14.83;61.14;102591.22;5056291;28;20310;-53
2023/01/27 08:43:15;;;;;;;6.57;3.73;;;;;;;14.85;61.26;102594.56;5056586;28;20033;-53
2023/01/27 08:45:41;;;;;;;13.68;4.50;;;;;;;14.92;61.04;102590.13;5064662;28;20052;-50
2023/01/27 08:48:06;;;;;;;5.55;3.70;;;;;;;14.88;61.29;102591.50;5058020;28;20052;-53
2023/01/27 08:50:33;;;;;;;4.55;3.05;;;;;;;14.84;60.87;102606.34;5058671;28;20033;-54
2023/01/27 08:53:00;;;;;;;7.50;3.13;;;;;;;15.03;61.22;102605.84;5057493;28;20041;-56
2023/01/27 08:55:27;;;;;;;11.32;3.50;;;;;;;15.18;60.55;102613.97;5059467;28;20092;-52
2023/01/27 08:57:52;;;;;;;6.47;3.17;;;;;;;15.16;60.58;102615.16;5053082;28;20175;-53
2023/01/27 09:00:19;;;;;;;8.60;3.35;;;;;;;14.70;61.39;102606.06;5060153;28;20510;-51
2023/01/27 09:02:45;;;;;;;9.02;2.67;;;;;;;14.42;63.04;102612.00;5057795;28;20033;-52
2023/01/27 09:05:10;;;;;;;5.70;3.23;;;;;;;14.94;61.51;102606.94;5057170;28;20128;-49
2023/01/27 09:07:36;;;;;;;6.18;3.10;;;;;;;14.88;60.97;102613.91;5061678;28;20044;-52
2023/01/27 09:10:03;;;;;;;3.95;2.53;;;;;;;15.15;60.57;102618.88;5062517;28;20056;-51
2023/01/27 09:12:29;;;;;;;5.55;2.65;;;;;;;15.07;60.65;102619.78;5057499;28;20055;-53
2023/01/27 09:14:57;;;;;;;5.80;2.83;;;;;;;15.05;60.93;102619.97;5060712;28;20037;-51
2023/01/27 09:17:26;;;;;;;4.18;2.50;;;;;;;14.97;61.30;102628.13;5057516;28;20087;-52
2023/01/27 09:19:52;;;;;;;4.30;2.85;;;;;;;15.29;60.98;102634.25;5059757;28;20041;-48
2023/01/27 09:22:18;;;;;;;4.53;2.17;;;;;;;15.19;61.70;102631.81;5059464;28;20068;-50
2023/01/27 09:24:43;;;;;;;4.80;2.37;;;;;;;14.97;63.84;102638.88;5060756;28;20037;-55
2023/01/27 09:27:09;;;;;;;8.30;2.47;;;;;;;15.10;61.21;102638.28;5060581;28;20037;-51
2023/01/27 09:29:35;;;;;;;5.40;2.15;;;;;;;15.43;61.10;102645.22;5059977;28;20040;-53
2023/01/27 09:32:02;;;;;;;9.02;3.10;;;;;;;15.47;60.19;102643.84;5060626;28;20056;-53
2023/01/27 09:34:28;;;;;;;5.00;2.42;;;;;;;15.58;60.87;102651.47;5058520;28;20052;-51
2023/01/27 09:37:04;;;;;;;3.83;2.25;;;;;;;15.37;61.45;102648.66;5060732;28;20033;-55
2023/01/27 09:39:32;;;;;;;9.10;4.47;;;;;;;15.30;60.66;102653.94;5055439;28;20045;-54
2023/01/27 09:42:16;;;;;;;5.45;3.05;;;;;;;15.88;59.34;102659.59;5062020;28;20041;-50
2023/01/27 09:44:54;;;;;;;5.93;3.03;;;;;;;15.31;61.65;102653.78;5054596;28;20048;-52
2023/01/27 09:47:30;;;;;;;4.70;2.42;;;;;;;14.39;63.73;102658.09;5057474;28;20034;-54
2023/01/27 09:50:05;;;;;;;5.63;2.95;;;;;;;14.43;63.93;102664.81;5059313;28;20104;-54
2023/01/27 09:53:22;;;;;;;3.78;2.42;;;;;;;14.89;62.35;102660.50;5057447;28;20041;-52
2023/01/27 09:55:55;;;;;;;5.70;2.70;;;;;;;15.03;63.47;102664.28;5051377;28;20037;-53
2023/01/27 09:58:33;;;;;;;4.65;2.10;;;;;;;15.22;61.95;102657.53;5064485;28;20032;-54
2023/01/27 10:01:20;;;;;;;8.57;3.05;;;;;;;15.30;61.21;102659.34;5059546;28;20976;-51
2023/01/27 10:04:09;;;;;;;;;;;;;;;16.39;59.15;102660.69;5059138;28;20048;-54
2023/01/27 10:06:52;;;;;;;4.93;2.63;;;;;;;15.29;60.64;102658.50;5060356;28;20008;-52
2023/01/27 10:09:59;;;;;;;4.50;2.42;;;;;;;15.45;61.29;102659.34;5059692;28;20048;-53
2023/01/27 10:12:33;;;;;;;5.13;2.47;;;;;;;15.11;62.23;102658.00;5058191;28;20040;-52
2023/01/27 10:15:20;;;;;;;4.70;2.55;;;;;;;15.37;62.00;102656.75;5059268;28;20099;-48
2023/01/27 10:18:01;;;;;;;4.40;2.50;;;;;;;15.28;61.84;102656.84;5060570;28;20029;-53
2023/01/27 10:20:36;;;;;;;4.07;2.67;;;;;;;15.74;60.69;102649.63;5059324;28;20030;-55
2023/01/27 10:23:18;;;;;;;6.47;3.20;;;;;;;15.51;61.00;102657.78;5064752;28;20036;-49
2023/01/27 10:26:04;;;;;;;5.25;2.72;;;;;;;15.55;61.48;102662.63;5055590;28;20025;-54
2023/01/27 10:28:32;;;;;;;7.57;2.83;;;;;;;15.40;62.19;102659.94;5062215;28;20037;-55
2023/01/27 10:31:07;;;;;;;5.70;2.78;;;;;;;15.51;61.56;102650.56;5061931;28;20048;-53
2023/01/27 10:33:51;;;;;;;5.57;3.40;;;;;;;15.23;62.16;102656.56;5059052;28;20109;-52
2023/01/27 10:36:26;;;;;;;10.52;3.38;;;;;;;15.00;62.37;102654.72;5064960;28;20052;-51
2023/01/27 10:39:09;;;;;;;5.63;3.45;;;;;;;15.00;63.23;102659.25;5060152;28;20029;-50
2023/01/27 10:42:27;;;;;;;5.47;2.95;;;;;;;15.19;62.06;102657.91;5062006;28;20061;-50
2023/01/27 10:44:58;;;;;;;7.68;3.60;;;;;;;15.33;62.19;102659.81;5052760;28;20055;-53
2023/01/27 10:48:10;;;;;;;5.30;3.08;;;;;;;16.28;59.14;102650.34;5063438;28;20123;-50
2023/01/27 10:50:44;;;;;;;7.57;3.25;;;;;;;16.27;59.32;102657.63;5058368;28;20037;-54
2023/01/27 10:53:24;;;;;;;7.78;3.70;;;;;;;16.30;59.50;102659.09;5058098;28;20038;-52
2023/01/27 10:56:05;;;;;;;11.68;3.63;;;;;;;15.98;60.04;102661.19;5055898;28;20029;-52
2023/01/27 10:58:54;;;;;;;8.50;3.65;;;;;;;15.69;60.02;102662.84;5057509;28;20037;-51
2023/01/27 11:01:28;;;;;;;7.15;3.67;;;;;;;15.78;60.43;102667.94;5060240;28;20041;-53
2023/01/27 11:04:12;;;;;;;9.95;4.10;;;;;;;15.87;60.20;102666.00;5064168;28;20040;-52
2023/01/27 11:06:40;;;;;;;9.32;4.45;;;;;;;15.49;61.41;102664.22;5063488;28;20037;-50
2023/01/27 11:09:14;;;;;;;7.63;4.03;;;;;;;15.66;60.95;102663.19;5063514;28;20048;-52
2023/01/27 11:11:44;;;;;;;6.85;3.50;;;;;;;16.32;59.79;102657.03;5058483;28;20037;-54
2023/01/27 11:14:25;;;;;;;7.47;3.85;;;;;;;16.22;59.68;102661.91;5060367;28;20021;-53
2023/01/27 11:16:59;;;;;;;10.57;4.20;;;;;;;16.14;60.82;102655.56;5056427;28;20052;-51
2023/01/27 11:19:33;;;;;;;9.45;3.80;;;;;;;16.22;59.59;102662.75;5060250;28;20072;-49
2023/01/27 11:22:02;;;;;;;7.18;3.92;;;;;;;16.38;59.79;102650.91;5058282;28;20037;-50
2023/01/27 11:24:41;;;;;;;8.65;4.40;;;;;;;16.61;59.01;102647.22;5061447;28;20477;-53
2023/01/27 11:27:51;;;;;;;5.97;3.58;;;;;;;16.35;59.38;102645.84;5059715;28;20032;-54
2023/01/27 11:30:24;;;;;;;9.80;4.20;;;;;;;16.60;58.92;102640.97;5058926;28;20049;-53
2023/01/27 11:33:08;;;;;;;6.75;4.00;;;;;;;16.71;58.63;102644.16;5061657;28;20068;-52
2023/01/27 11:35:34;;;;;;;6.07;3.90;;;;;;;16.03;60.92;102637.19;5058576;28;20056;-53
2023/01/27 11:37:59;;;;;;;5.38;3.25;;;;;;;16.24;60.99;102639.09;5063078;28;20037;-52
2023/01/27 11:40:33;;;;;;;8.43;3.70;;;;;;;16.31;59.95;102634.63;5060381;28;20029;-52
2023/01/27 11:43:00;;;;;;;7.05;3.70;;;;;;;15.88;60.93;102632.63;5063912;28;20852;-49
2023/01/27 11:45:29;;;;;;;6.75;3.78;;;;;;;16.29;59.67;102625.03;5060040;28;20029;-50
2023/01/27 11:47:57;;;;;;;7.40;3.53;;;;;;;16.11;60.91;102625.44;5060051;28;20085;-52
2023/01/27 11:50:29;;;;;;;6.78;3.97;;;;;;;16.17;60.17;102616.59;5074666;28;20057;-50
2023/01/27 11:53:08;;;;;;;10.32;4.18;;;;;;;16.15;60.30;102619.50;5056359;28;20071;-53
2023/01/27 11:55:44;;;;;;;7.80;4.38;;;;;;;16.09;60.23;102620.22;5058117;28;20085;-53
2023/01/27 11:58:18;;;;;;;6.35;3.88;;;;;;;16.19;60.87;102622.63;5054841;28;20033;-52
2023/01/27 12:00:53;;;;;;;6.25;3.70;;;;;;;15.90;60.42;102611.69;5063914;28;20025;-50
2023/01/27 12:03:56;;;;;;;8.27;4.20;;;;;;;16.51;59.85;102617.81;5061189;28;20040;-53